sensor_id;sensor_type;location;lat;lon;timestamp;P1;P2;P0
74333;PMS5003;62753;40.394;-80.022;2023-11-21T00:00:09;7;7;
74333;PMS5003;62753;40.394;-80.022;2023-11-21T00:02:28;9;8;
74333;PMS5003;62753;40.394;-80.022;2023-11-21T00:04:54;8;8;
74333;PMS5003;62753;40.394;-80.022;2023-11-21T00:07:19;10;9;
74333;PMS5003;62753;40.394;-80.022;2023-11-21T00:09:45;14;11;
74333;PMS5003;62753;40.394;-80.022;2023-11-21T00:12:10;13;10;
74333;PMS5003;62753;40.394;-80.022;2023-11-21T00:14:36;13;11;
74333;PMS5003;62753;40.394;-80.022;2023-11-21T00:17:02;13;11;
74333;PMS5003;62753;40.394;-80.022;2023-11-21T00:19:27;12;12;
74333;PMS5003;62753;40.394;-80.022;2023-11-21T00:21:53;10;9;
74333;PMS5003;62753;40.394;-80.022;2023-11-21T00:24:18;11;9;
74333;PMS5003;62753;40.394;-80.022;2023-11-21T00:26:43;12;12;
74333;PMS5003;62753;40.394;-80.022;2023-11-21T00:29:09;12;10;
74333;PMS5003;62753;40.394;-80.022;2023-11-21T00:31:34;15;12;
74333;PMS5003;62753;40.394;-80.022;2023-11-21T00:34:00;14;11;
74333;PMS5003;62753;40.394;-80.022;2023-11-21T00:36:25;13;11;
74333;PMS5003;62753;40.394;-80.022;2023-11-21T00:38:51;13;12;
74333;PMS5003;62753;40.394;-80.022;2023-11-21T00:41:16;15;14;
74333;PMS5003;62753;40.394;-80.022;2023-11-21T00:43:42;16;12;
74333;PMS5003;62753;40.394;-80.022;2023-11-21T00:46:07;13;12;
74333;PMS5003;62753;40.394;-80.022;2023-11-21T00:48:32;14;12;
74333;PMS5003;62753;40.394;-80.022;2023-11-21T00:50:57;16;14;
74333;PMS5003;62753;40.394;-80.022;2023-11-21T00:53:22;14;11;
74333;PMS5003;62753;40.394;-80.022;2023-11-21T00:55:48;15;13;
74333;PMS5003;62753;40.394;-80.022;2023-11-21T00:58:14;16;15;
74333;PMS5003;62753;40.394;-80.022;2023-11-21T01:00:39;14;12;
74333;PMS5003;62753;40.394;-80.022;2023-11-21T01:03:05;14;12;
74333;PMS5003;62753;40.394;-80.022;2023-11-21T01:05:30;12;12;
74333;PMS5003;62753;40.394;-80.022;2023-11-21T01:07:56;14;13;
74333;PMS5003;62753;40.394;-80.022;2023-11-21T01:10:21;12;11;
74333;PMS5003;62753;40.394;-80.022;2023-11-21T01:12:46;20;15;
74333;PMS5003;62753;40.394;-80.022;2023-11-21T01:15:11;11;11;
74333;PMS5003;62753;40.394;-80.022;2023-11-21T01:17:37;13;12;
74333;PMS5003;62753;40.394;-80.022;2023-11-21T01:20:03;16;15;
74333;PMS5003;62753;40.394;-80.022;2023-11-21T01:22:28;14;13;
74333;PMS5003;62753;40.394;-80.022;2023-11-21T01:24:53;12;12;
74333;PMS5003;62753;40.394;-80.022;2023-11-21T01:27:18;14;12;
74333;PMS5003;62753;40.394;-80.022;2023-11-21T01:29:44;16;14;
74333;PMS5003;62753;40.394;-80.022;2023-11-21T01:32:09;16;14;
74333;PMS5003;62753;40.394;-80.022;2023-11-21T01:34:34;12;12;
74333;PMS5003;62753;40.394;-80.022;2023-11-21T01:37:00;12;12;
74333;PMS5003;62753;40.394;-80.022;2023-11-21T01:39:25;12;10;
74333;PMS5003;62753;40.394;-80.022;2023-11-21T01:41:51;19;15;
74333;PMS5003;62753;40.394;-80.022;2023-11-21T01:44:16;14;14;
74333;PMS5003;62753;40.394;-80.022;2023-11-21T01:46:42;12;12;
74333;PMS5003;62753;40.394;-80.022;2023-11-21T01:49:07;13;12;
74333;PMS5003;62753;40.394;-80.022;2023-11-21T01:51:33;14;12;
74333;PMS5003;62753;40.394;-80.022;2023-11-21T01:53:58;14;13;
74333;PMS5003;62753;40.394;-80.022;2023-11-21T01:56:24;15;13;
74333;PMS5003;62753;40.394;-80.022;2023-11-21T01:58:49;12;12;
74333;PMS5003;62753;40.394;-80.022;2023-11-21T02:01:14;15;11;
74333;PMS5003;62753;40.394;-80.022;2023-11-21T02:03:40;13;11;
74333;PMS5003;62753;40.394;-80.022;2023-11-21T02:06:05;18;16;
74333;PMS5003;62753;40.394;-80.022;2023-11-21T02:08:30;21;15;
74333;PMS5003;62753;40.394;-80.022;2023-11-21T02:10:56;14;12;
74333;PMS5003;62753;40.394;-80.022;2023-11-21T02:13:21;13;13;
74333;PMS5003;62753;40.394;-80.022;2023-11-21T02:15:46;13;11;
74333;PMS5003;62753;40.394;-80.022;2023-11-21T02:18:12;14;12;
74333;PMS5003;62753;40.394;-80.022;2023-11-21T02:20:37;15;13;
74333;PMS5003;62753;40.394;-80.022;2023-11-21T02:23:03;14;13;
74333;PMS5003;62753;40.394;-80.022;2023-11-21T02:25:28;13;12;
74333;PMS5003;62753;40.394;-80.022;2023-11-21T02:27:54;14;12;
74333;PMS5003;62753;40.394;-80.022;2023-11-21T02:30:19;14;13;
74333;PMS5003;62753;40.394;-80.022;2023-11-21T02:32:44;14;12;
74333;PMS5003;62753;40.394;-80.022;2023-11-21T02:35:11;16;14;
74333;PMS5003;62753;40.394;-80.022;2023-11-21T02:37:35;13;11;
74333;PMS5003;62753;40.394;-80.022;2023-11-21T02:40:01;13;11;
74333;PMS5003;62753;40.394;-80.022;2023-11-21T02:42:26;15;14;
74333;PMS5003;62753;40.394;-80.022;2023-11-21T02:44:51;13;11;
74333;PMS5003;62753;40.394;-80.022;2023-11-21T02:47:17;17;14;
74333;PMS5003;62753;40.394;-80.022;2023-11-21T02:49:42;16;12;
74333;PMS5003;62753;40.394;-80.022;2023-11-21T02:52:07;17;14;
74333;PMS5003;62753;40.394;-80.022;2023-11-21T02:54:33;15;14;
74333;PMS5003;62753;40.394;-80.022;2023-11-21T02:56:59;14;13;
74333;PMS5003;62753;40.394;-80.022;2023-11-21T02:59:24;12;10;
74333;PMS5003;62753;40.394;-80.022;2023-11-21T03:01:50;14;13;
74333;PMS5003;62753;40.394;-80.022;2023-11-21T03:04:15;14;13;
74333;PMS5003;62753;40.394;-80.022;2023-11-21T03:06:40;15;12;
74333;PMS5003;62753;40.394;-80.022;2023-11-21T03:09:06;13;13;
74333;PMS5003;62753;40.394;-80.022;2023-11-21T03:11:31;14;13;
74333;PMS5003;62753;40.394;-80.022;2023-11-21T03:13:57;19;13;
74333;PMS5003;62753;40.394;-80.022;2023-11-21T03:16:23;16;14;
74333;PMS5003;62753;40.394;-80.022;2023-11-21T03:18:47;13;12;
74333;PMS5003;62753;40.394;-80.022;2023-11-21T03:21:13;17;15;
74333;PMS5003;62753;40.394;-80.022;2023-11-21T03:23:38;13;12;
74333;PMS5003;62753;40.394;-80.022;2023-11-21T03:26:04;13;12;
74333;PMS5003;62753;40.394;-80.022;2023-11-21T03:28:30;14;12;
74333;PMS5003;62753;40.394;-80.022;2023-11-21T03:30:55;14;14;
74333;PMS5003;62753;40.394;-80.022;2023-11-21T03:33:20;16;15;
74333;PMS5003;62753;40.394;-80.022;2023-11-21T03:35:46;19;16;
74333;PMS5003;62753;40.394;-80.022;2023-11-21T03:38:11;14;13;
74333;PMS5003;62753;40.394;-80.022;2023-11-21T03:40:37;13;12;
74333;PMS5003;62753;40.394;-80.022;2023-11-21T03:43:01;14;12;
74333;PMS5003;62753;40.394;-80.022;2023-11-21T03:45:27;15;14;
74333;PMS5003;62753;40.394;-80.022;2023-11-21T03:47:53;13;12;
74333;PMS5003;62753;40.394;-80.022;2023-11-21T03:50:19;14;13;
74333;PMS5003;62753;40.394;-80.022;2023-11-21T03:52:44;15;14;
74333;PMS5003;62753;40.394;-80.022;2023-11-21T03:55:10;16;14;
74333;PMS5003;62753;40.394;-80.022;2023-11-21T03:57:35;21;15;
74333;PMS5003;62753;40.394;-80.022;2023-11-21T04:00:01;12;12;
74333;PMS5003;62753;40.394;-80.022;2023-11-21T04:02:27;16;16;
74333;PMS5003;62753;40.394;-80.022;2023-11-21T04:04:52;15;14;
74333;PMS5003;62753;40.394;-80.022;2023-11-21T04:07:17;17;15;
74333;PMS5003;62753;40.394;-80.022;2023-11-21T04:09:43;15;13;
74333;PMS5003;62753;40.394;-80.022;2023-11-21T04:12:08;14;13;
74333;PMS5003;62753;40.394;-80.022;2023-11-21T04:14:33;15;14;
74333;PMS5003;62753;40.394;-80.022;2023-11-21T04:16:59;17;13;
74333;PMS5003;62753;40.394;-80.022;2023-11-21T04:19:24;12;11;
74333;PMS5003;62753;40.394;-80.022;2023-11-21T04:21:50;13;12;
74333;PMS5003;62753;40.394;-80.022;2023-11-21T04:24:15;16;13;
74333;PMS5003;62753;40.394;-80.022;2023-11-21T04:26:40;14;13;
74333;PMS5003;62753;40.394;-80.022;2023-11-21T04:29:06;17;16;
74333;PMS5003;62753;40.394;-80.022;2023-11-21T04:31:32;14;11;
74333;PMS5003;62753;40.394;-80.022;2023-11-21T04:33:58;16;14;
74333;PMS5003;62753;40.394;-80.022;2023-11-21T04:36:23;23;19;
74333;PMS5003;62753;40.394;-80.022;2023-11-21T04:38:49;21;15;
74333;PMS5003;62753;40.394;-80.022;2023-11-21T04:41:14;20;16;
74333;PMS5003;62753;40.394;-80.022;2023-11-21T04:43:39;15;14;
74333;PMS5003;62753;40.394;-80.022;2023-11-21T04:46:05;17;14;
74333;PMS5003;62753;40.394;-80.022;2023-11-21T04:48:31;17;15;
74333;PMS5003;62753;40.394;-80.022;2023-11-21T04:50:56;18;14;
74333;PMS5003;62753;40.394;-80.022;2023-11-21T04:53:22;15;14;
74333;PMS5003;62753;40.394;-80.022;2023-11-21T04:55:47;14;13;
74333;PMS5003;62753;40.394;-80.022;2023-11-21T04:58:12;18;17;
74333;PMS5003;62753;40.394;-80.022;2023-11-21T05:00:38;20;16;
74333;PMS5003;62753;40.394;-80.022;2023-11-21T05:03:04;19;16;
74333;PMS5003;62753;40.394;-80.022;2023-11-21T05:05:29;15;15;
74333;PMS5003;62753;40.394;-80.022;2023-11-21T05:07:55;17;15;
74333;PMS5003;62753;40.394;-80.022;2023-11-21T05:10:20;17;15;
74333;PMS5003;62753;40.394;-80.022;2023-11-21T05:12:45;24;18;
74333;PMS5003;62753;40.394;-80.022;2023-11-21T05:15:13;17;15;
74333;PMS5003;62753;40.394;-80.022;2023-11-21T05:17:36;17;16;
74333;PMS5003;62753;40.394;-80.022;2023-11-21T05:20:03;20;16;
74333;PMS5003;62753;40.394;-80.022;2023-11-21T05:22:27;18;16;
74333;PMS5003;62753;40.394;-80.022;2023-11-21T05:24:53;15;12;
74333;PMS5003;62753;40.394;-80.022;2023-11-21T05:27:19;18;16;
74333;PMS5003;62753;40.394;-80.022;2023-11-21T05:29:44;17;16;
74333;PMS5003;62753;40.394;-80.022;2023-11-21T05:32:10;17;16;
74333;PMS5003;62753;40.394;-80.022;2023-11-21T05:34:36;23;14;
74333;PMS5003;62753;40.394;-80.022;2023-11-21T05:37:01;25;18;
74333;PMS5003;62753;40.394;-80.022;2023-11-21T05:39:27;22;17;
74333;PMS5003;62753;40.394;-80.022;2023-11-21T05:41:52;18;16;
74333;PMS5003;62753;40.394;-80.022;2023-11-21T05:44:17;24;20;
74333;PMS5003;62753;40.394;-80.022;2023-11-21T05:46:42;18;17;
74333;PMS5003;62753;40.394;-80.022;2023-11-21T05:49:07;12;12;
74333;PMS5003;62753;40.394;-80.022;2023-11-21T05:51:33;22;19;
74333;PMS5003;62753;40.394;-80.022;2023-11-21T05:53:58;16;14;
74333;PMS5003;62753;40.394;-80.022;2023-11-21T05:56:23;17;16;
74333;PMS5003;62753;40.394;-80.022;2023-11-21T05:58:49;22;18;
74333;PMS5003;62753;40.394;-80.022;2023-11-21T06:01:14;25;17;
74333;PMS5003;62753;40.394;-80.022;2023-11-21T06:03:39;26;20;
74333;PMS5003;62753;40.394;-80.022;2023-11-21T06:06:05;16;15;
74333;PMS5003;62753;40.394;-80.022;2023-11-21T06:08:30;21;17;
74333;PMS5003;62753;40.394;-80.022;2023-11-21T06:10:55;22;17;
74333;PMS5003;62753;40.394;-80.022;2023-11-21T06:13:21;17;16;
74333;PMS5003;62753;40.394;-80.022;2023-11-21T06:15:47;18;16;
74333;PMS5003;62753;40.394;-80.022;2023-11-21T06:18:13;18;17;
74333;PMS5003;62753;40.394;-80.022;2023-11-21T06:20:38;17;16;
74333;PMS5003;62753;40.394;-80.022;2023-11-21T06:23:03;18;17;
74333;PMS5003;62753;40.394;-80.022;2023-11-21T06:25:29;15;14;
74333;PMS5003;62753;40.394;-80.022;2023-11-21T06:27:55;20;16;
74333;PMS5003;62753;40.394;-80.022;2023-11-21T06:30:20;15;14;
74333;PMS5003;62753;40.394;-80.022;2023-11-21T06:32:45;19;17;
74333;PMS5003;62753;40.394;-80.022;2023-11-21T06:35:11;18;14;
74333;PMS5003;62753;40.394;-80.022;2023-11-21T06:37:37;25;19;
74333;PMS5003;62753;40.394;-80.022;2023-11-21T06:40:02;18;15;
74333;PMS5003;62753;40.394;-80.022;2023-11-21T06:42:27;17;17;
74333;PMS5003;62753;40.394;-80.022;2023-11-21T06:44:53;21;17;
74333;PMS5003;62753;40.394;-80.022;2023-11-21T06:47:18;23;19;
74333;PMS5003;62753;40.394;-80.022;2023-11-21T06:49:44;25;17;
74333;PMS5003;62753;40.394;-80.022;2023-11-21T06:52:09;21;19;
74333;PMS5003;62753;40.394;-80.022;2023-11-21T06:54:34;24;18;
74333;PMS5003;62753;40.394;-80.022;2023-11-21T06:57:01;23;18;
74333;PMS5003;62753;40.394;-80.022;2023-11-21T06:59:28;16;14;
74333;PMS5003;62753;40.394;-80.022;2023-11-21T07:01:51;19;17;
74333;PMS5003;62753;40.394;-80.022;2023-11-21T07:04:17;19;17;
74333;PMS5003;62753;40.394;-80.022;2023-11-21T07:06:43;16;16;
74333;PMS5003;62753;40.394;-80.022;2023-11-21T07:09:08;24;18;
74333;PMS5003;62753;40.394;-80.022;2023-11-21T07:11:34;19;16;
74333;PMS5003;62753;40.394;-80.022;2023-11-21T07:13:59;17;16;
74333;PMS5003;62753;40.394;-80.022;2023-11-21T07:16:25;20;19;
74333;PMS5003;62753;40.394;-80.022;2023-11-21T07:18:52;16;15;
74333;PMS5003;62753;40.394;-80.022;2023-11-21T07:21:16;18;18;
74333;PMS5003;62753;40.394;-80.022;2023-11-21T07:23:41;18;16;
74333;PMS5003;62753;40.394;-80.022;2023-11-21T07:26:06;16;15;
74333;PMS5003;62753;40.394;-80.022;2023-11-21T07:28:38;21;19;
74333;PMS5003;62753;40.394;-80.022;2023-11-21T07:31:02;20;17;
74333;PMS5003;62753;40.394;-80.022;2023-11-21T07:33:23;18;16;
74333;PMS5003;62753;40.394;-80.022;2023-11-21T07:35:49;20;16;
74333;PMS5003;62753;40.394;-80.022;2023-11-21T07:38:14;19;15;
74333;PMS5003;62753;40.394;-80.022;2023-11-21T07:40:39;16;15;
74333;PMS5003;62753;40.394;-80.022;2023-11-21T07:43:04;17;17;
74333;PMS5003;62753;40.394;-80.022;2023-11-21T07:45:30;17;17;
74333;PMS5003;62753;40.394;-80.022;2023-11-21T07:47:55;17;16;
74333;PMS5003;62753;40.394;-80.022;2023-11-21T07:50:21;17;15;
74333;PMS5003;62753;40.394;-80.022;2023-11-21T07:52:46;17;16;
74333;PMS5003;62753;40.394;-80.022;2023-11-21T07:55:11;19;15;
74333;PMS5003;62753;40.394;-80.022;2023-11-21T07:57:37;15;14;
74333;PMS5003;62753;40.394;-80.022;2023-11-21T08:00:02;19;16;
74333;PMS5003;62753;40.394;-80.022;2023-11-21T08:02:28;18;17;
74333;PMS5003;62753;40.394;-80.022;2023-11-21T08:04:54;16;15;
74333;PMS5003;62753;40.394;-80.022;2023-11-21T08:07:19;21;17;
74333;PMS5003;62753;40.394;-80.022;2023-11-21T08:09:45;20;17;
74333;PMS5003;62753;40.394;-80.022;2023-11-21T08:12:10;16;15;
74333;PMS5003;62753;40.394;-80.022;2023-11-21T08:14:36;14;14;
74333;PMS5003;62753;40.394;-80.022;2023-11-21T08:17:01;17;16;
74333;PMS5003;62753;40.394;-80.022;2023-11-21T08:19:26;17;16;
74333;PMS5003;62753;40.394;-80.022;2023-11-21T08:21:52;17;16;
74333;PMS5003;62753;40.394;-80.022;2023-11-21T08:24:17;19;14;
74333;PMS5003;62753;40.394;-80.022;2023-11-21T08:26:42;17;15;
74333;PMS5003;62753;40.394;-80.022;2023-11-21T08:29:07;16;15;
74333;PMS5003;62753;40.394;-80.022;2023-11-21T08:31:33;17;16;
74333;PMS5003;62753;40.394;-80.022;2023-11-21T08:33:59;16;13;
74333;PMS5003;62753;40.394;-80.022;2023-11-21T08:36:25;16;15;
74333;PMS5003;62753;40.394;-80.022;2023-11-21T08:38:50;18;16;
74333;PMS5003;62753;40.394;-80.022;2023-11-21T08:41:15;19;16;
74333;PMS5003;62753;40.394;-80.022;2023-11-21T08:43:40;17;16;
74333;PMS5003;62753;40.394;-80.022;2023-11-21T08:46:06;18;16;
74333;PMS5003;62753;40.394;-80.022;2023-11-21T08:48:31;20;14;
74333;PMS5003;62753;40.394;-80.022;2023-11-21T08:50:57;19;16;
74333;PMS5003;62753;40.394;-80.022;2023-11-21T08:53:22;16;16;
74333;PMS5003;62753;40.394;-80.022;2023-11-21T08:55:48;22;15;
74333;PMS5003;62753;40.394;-80.022;2023-11-21T08:58:13;16;14;
74333;PMS5003;62753;40.394;-80.022;2023-11-21T09:00:39;20;16;
74333;PMS5003;62753;40.394;-80.022;2023-11-21T09:03:03;16;15;
74333;PMS5003;62753;40.394;-80.022;2023-11-21T09:05:29;16;14;
74333;PMS5003;62753;40.394;-80.022;2023-11-21T09:07:54;23;18;
74333;PMS5003;62753;40.394;-80.022;2023-11-21T09:10:20;16;14;
74333;PMS5003;62753;40.394;-80.022;2023-11-21T09:12:45;21;18;
74333;PMS5003;62753;40.394;-80.022;2023-11-21T09:15:10;20;17;
74333;PMS5003;62753;40.394;-80.022;2023-11-21T09:17:36;18;16;
74333;PMS5003;62753;40.394;-80.022;2023-11-21T09:20:01;18;15;
74333;PMS5003;62753;40.394;-80.022;2023-11-21T09:22:27;16;15;
74333;PMS5003;62753;40.394;-80.022;2023-11-21T09:24:52;22;18;
74333;PMS5003;62753;40.394;-80.022;2023-11-21T09:27:18;16;16;
74333;PMS5003;62753;40.394;-80.022;2023-11-21T09:29:43;26;21;
74333;PMS5003;62753;40.394;-80.022;2023-11-21T09:32:09;17;15;
74333;PMS5003;62753;40.394;-80.022;2023-11-21T09:34:35;22;18;
74333;PMS5003;62753;40.394;-80.022;2023-11-21T09:37:00;26;19;
74333;PMS5003;62753;40.394;-80.022;2023-11-21T09:39:25;19;16;
74333;PMS5003;62753;40.394;-80.022;2023-11-21T09:41:52;17;15;
74333;PMS5003;62753;40.394;-80.022;2023-11-21T09:44:18;22;16;
74333;PMS5003;62753;40.394;-80.022;2023-11-21T09:46:42;19;17;
74333;PMS5003;62753;40.394;-80.022;2023-11-21T09:49:08;19;15;
74333;PMS5003;62753;40.394;-80.022;2023-11-21T09:51:33;25;19;
74333;PMS5003;62753;40.394;-80.022;2023-11-21T09:53:59;18;17;
74333;PMS5003;62753;40.394;-80.022;2023-11-21T09:56:25;22;16;
74333;PMS5003;62753;40.394;-80.022;2023-11-21T09:58:51;22;21;
74333;PMS5003;62753;40.394;-80.022;2023-11-21T10:01:16;17;17;
74333;PMS5003;62753;40.394;-80.022;2023-11-21T10:03:41;22;21;
74333;PMS5003;62753;40.394;-80.022;2023-11-21T10:06:07;22;18;
74333;PMS5003;62753;40.394;-80.022;2023-11-21T10:08:32;25;23;
74333;PMS5003;62753;40.394;-80.022;2023-11-21T10:10:58;23;21;
74333;PMS5003;62753;40.394;-80.022;2023-11-21T10:13:23;26;21;
74333;PMS5003;62753;40.394;-80.022;2023-11-21T10:15:49;27;20;
74333;PMS5003;62753;40.394;-80.022;2023-11-21T10:18:15;26;23;
74333;PMS5003;62753;40.394;-80.022;2023-11-21T10:20:40;19;18;
74333;PMS5003;62753;40.394;-80.022;2023-11-21T10:23:06;27;24;
74333;PMS5003;62753;40.394;-80.022;2023-11-21T10:25:31;24;21;
74333;PMS5003;62753;40.394;-80.022;2023-11-21T10:27:57;24;22;
74333;PMS5003;62753;40.394;-80.022;2023-11-21T10:30:22;21;19;
74333;PMS5003;62753;40.394;-80.022;2023-11-21T10:32:48;25;19;
74333;PMS5003;62753;40.394;-80.022;2023-11-21T10:35:13;25;20;
74333;PMS5003;62753;40.394;-80.022;2023-11-21T10:37:39;24;23;
74333;PMS5003;62753;40.394;-80.022;2023-11-21T10:40:04;25;22;
74333;PMS5003;62753;40.394;-80.022;2023-11-21T10:42:29;30;24;
74333;PMS5003;62753;40.394;-80.022;2023-11-21T10:44:54;20;16;
74333;PMS5003;62753;40.394;-80.022;2023-11-21T10:47:20;23;20;
74333;PMS5003;62753;40.394;-80.022;2023-11-21T10:49:45;25;21;
74333;PMS5003;62753;40.394;-80.022;2023-11-21T10:52:10;20;19;
74333;PMS5003;62753;40.394;-80.022;2023-11-21T10:54:35;19;16;
74333;PMS5003;62753;40.394;-80.022;2023-11-21T10:57:02;24;19;
74333;PMS5003;62753;40.394;-80.022;2023-11-21T10:59:28;23;20;
74333;PMS5003;62753;40.394;-80.022;2023-11-21T11:01:53;22;21;
74333;PMS5003;62753;40.394;-80.022;2023-11-21T11:04:18;22;18;
74333;PMS5003;62753;40.394;-80.022;2023-11-21T11:06:44;20;18;
74333;PMS5003;62753;40.394;-80.022;2023-11-21T11:09:10;25;23;
74333;PMS5003;62753;40.394;-80.022;2023-11-21T11:11:35;25;20;
74333;PMS5003;62753;40.394;-80.022;2023-11-21T11:14:01;21;20;
74333;PMS5003;62753;40.394;-80.022;2023-11-21T11:16:26;24;20;
74333;PMS5003;62753;40.394;-80.022;2023-11-21T11:18:52;22;19;
74333;PMS5003;62753;40.394;-80.022;2023-11-21T11:21:21;21;19;
74333;PMS5003;62753;40.394;-80.022;2023-11-21T11:23:46;20;19;
74333;PMS5003;62753;40.394;-80.022;2023-11-21T11:26:11;25;19;
74333;PMS5003;62753;40.394;-80.022;2023-11-21T11:28:35;23;21;
74333;PMS5003;62753;40.394;-80.022;2023-11-21T11:31:00;27;19;
74333;PMS5003;62753;40.394;-80.022;2023-11-21T11:33:25;19;17;
74333;PMS5003;62753;40.394;-80.022;2023-11-21T11:35:52;22;18;
74333;PMS5003;62753;40.394;-80.022;2023-11-21T11:38:14;23;19;
74333;PMS5003;62753;40.394;-80.022;2023-11-21T11:40:40;20;15;
74333;PMS5003;62753;40.394;-80.022;2023-11-21T11:43:05;21;21;
74333;PMS5003;62753;40.394;-80.022;2023-11-21T11:45:32;14;14;
74333;PMS5003;62753;40.394;-80.022;2023-11-21T11:47:56;20;15;
74333;PMS5003;62753;40.394;-80.022;2023-11-21T11:50:22;20;17;
74333;PMS5003;62753;40.394;-80.022;2023-11-21T11:52:48;20;17;
74333;PMS5003;62753;40.394;-80.022;2023-11-21T11:55:13;19;15;
74333;PMS5003;62753;40.394;-80.022;2023-11-21T11:57:39;17;16;
74333;PMS5003;62753;40.394;-80.022;2023-11-21T12:00:10;18;16;
74333;PMS5003;62753;40.394;-80.022;2023-11-21T12:02:30;17;15;
74333;PMS5003;62753;40.394;-80.022;2023-11-21T12:04:56;17;14;
74333;PMS5003;62753;40.394;-80.022;2023-11-21T12:07:21;16;16;
74333;PMS5003;62753;40.394;-80.022;2023-11-21T12:09:47;14;14;
74333;PMS5003;62753;40.394;-80.022;2023-11-21T12:12:13;18;18;
74333;PMS5003;62753;40.394;-80.022;2023-11-21T12:14:38;15;13;
74333;PMS5003;62753;40.394;-80.022;2023-11-21T12:17:04;23;17;
74333;PMS5003;62753;40.394;-80.022;2023-11-21T12:19:29;18;16;
74333;PMS5003;62753;40.394;-80.022;2023-11-21T12:21:55;19;16;
74333;PMS5003;62753;40.394;-80.022;2023-11-21T12:24:20;16;15;
74333;PMS5003;62753;40.394;-80.022;2023-11-21T12:26:45;17;15;
74333;PMS5003;62753;40.394;-80.022;2023-11-21T12:29:11;14;13;
74333;PMS5003;62753;40.394;-80.022;2023-11-21T12:31:37;19;14;
74333;PMS5003;62753;40.394;-80.022;2023-11-21T12:34:02;22;15;
74333;PMS5003;62753;40.394;-80.022;2023-11-21T12:36:28;16;15;
74333;PMS5003;62753;40.394;-80.022;2023-11-21T12:38:54;15;15;
74333;PMS5003;62753;40.394;-80.022;2023-11-21T12:41:19;23;17;
74333;PMS5003;62753;40.394;-80.022;2023-11-21T12:43:44;20;15;
74333;PMS5003;62753;40.394;-80.022;2023-11-21T12:46:10;22;15;
74333;PMS5003;62753;40.394;-80.022;2023-11-21T12:48:36;20;15;
74333;PMS5003;62753;40.394;-80.022;2023-11-21T12:51:00;18;17;
74333;PMS5003;62753;40.394;-80.022;2023-11-21T12:53:25;16;15;
74333;PMS5003;62753;40.394;-80.022;2023-11-21T12:55:50;20;17;
74333;PMS5003;62753;40.394;-80.022;2023-11-21T12:58:16;17;15;
74333;PMS5003;62753;40.394;-80.022;2023-11-21T13:00:42;29;25;
74333;PMS5003;62753;40.394;-80.022;2023-11-21T13:03:08;18;14;
74333;PMS5003;62753;40.394;-80.022;2023-11-21T13:05:32;21;18;
74333;PMS5003;62753;40.394;-80.022;2023-11-21T13:07:58;15;13;
74333;PMS5003;62753;40.394;-80.022;2023-11-21T13:10:24;19;16;
74333;PMS5003;62753;40.394;-80.022;2023-11-21T13:12:48;21;20;
74333;PMS5003;62753;40.394;-80.022;2023-11-21T13:15:15;25;21;
74333;PMS5003;62753;40.394;-80.022;2023-11-21T13:17:40;21;17;
74333;PMS5003;62753;40.394;-80.022;2023-11-21T13:20:06;15;14;
74333;PMS5003;62753;40.394;-80.022;2023-11-21T13:22:31;21;17;
74333;PMS5003;62753;40.394;-80.022;2023-11-21T13:24:56;18;16;
74333;PMS5003;62753;40.394;-80.022;2023-11-21T13:27:22;16;15;
74333;PMS5003;62753;40.394;-80.022;2023-11-21T13:29:48;21;15;
74333;PMS5003;62753;40.394;-80.022;2023-11-21T13:32:13;17;15;
74333;PMS5003;62753;40.394;-80.022;2023-11-21T13:34:39;21;15;
74333;PMS5003;62753;40.394;-80.022;2023-11-21T13:37:05;25;21;
74333;PMS5003;62753;40.394;-80.022;2023-11-21T13:39:30;21;16;
74333;PMS5003;62753;40.394;-80.022;2023-11-21T13:41:56;22;16;
74333;PMS5003;62753;40.394;-80.022;2023-11-21T13:44:21;20;16;
74333;PMS5003;62753;40.394;-80.022;2023-11-21T13:46:46;22;19;
74333;PMS5003;62753;40.394;-80.022;2023-11-21T13:49:12;19;16;
74333;PMS5003;62753;40.394;-80.022;2023-11-21T13:51:37;25;15;
74333;PMS5003;62753;40.394;-80.022;2023-11-21T13:54:03;19;16;
74333;PMS5003;62753;40.394;-80.022;2023-11-21T13:56:28;19;17;
74333;PMS5003;62753;40.394;-80.022;2023-11-21T13:58:54;18;18;
74333;PMS5003;62753;40.394;-80.022;2023-11-21T14:01:19;26;19;
74333;PMS5003;62753;40.394;-80.022;2023-11-21T14:03:44;21;19;
74333;PMS5003;62753;40.394;-80.022;2023-11-21T14:06:10;23;19;
74333;PMS5003;62753;40.394;-80.022;2023-11-21T14:08:36;23;21;
74333;PMS5003;62753;40.394;-80.022;2023-11-21T14:11:01;25;18;
74333;PMS5003;62753;40.394;-80.022;2023-11-21T14:13:27;17;13;
74333;PMS5003;62753;40.394;-80.022;2023-11-21T14:15:53;20;18;
74333;PMS5003;62753;40.394;-80.022;2023-11-21T14:18:18;20;19;
74333;PMS5003;62753;40.394;-80.022;2023-11-21T14:20:44;25;19;
74333;PMS5003;62753;40.394;-80.022;2023-11-21T14:23:09;17;15;
74333;PMS5003;62753;40.394;-80.022;2023-11-21T14:25:35;18;15;
74333;PMS5003;62753;40.394;-80.022;2023-11-21T14:28:00;25;18;
74333;PMS5003;62753;40.394;-80.022;2023-11-21T14:30:26;15;15;
74333;PMS5003;62753;40.394;-80.022;2023-11-21T14:32:51;19;16;
74333;PMS5003;62753;40.394;-80.022;2023-11-21T14:35:16;19;17;
74333;PMS5003;62753;40.394;-80.022;2023-11-21T14:37:41;17;16;
74333;PMS5003;62753;40.394;-80.022;2023-11-21T14:40:07;20;18;
74333;PMS5003;62753;40.394;-80.022;2023-11-21T14:42:32;17;15;
74333;PMS5003;62753;40.394;-80.022;2023-11-21T14:44:58;16;14;
74333;PMS5003;62753;40.394;-80.022;2023-11-21T14:47:23;14;12;
74333;PMS5003;62753;40.394;-80.022;2023-11-21T14:49:49;13;13;
74333;PMS5003;62753;40.394;-80.022;2023-11-21T14:52:25;17;14;
74333;PMS5003;62753;40.394;-80.022;2023-11-21T14:54:40;19;13;
74333;PMS5003;62753;40.394;-80.022;2023-11-21T14:57:07;14;13;
74333;PMS5003;62753;40.394;-80.022;2023-11-21T14:59:32;20;14;
74333;PMS5003;62753;40.394;-80.022;2023-11-21T15:01:57;18;17;
74333;PMS5003;62753;40.394;-80.022;2023-11-21T15:04:23;23;17;
74333;PMS5003;62753;40.394;-80.022;2023-11-21T15:06:49;24;20;
74333;PMS5003;62753;40.394;-80.022;2023-11-21T15:09:15;21;21;
74333;PMS5003;62753;40.394;-80.022;2023-11-21T15:11:39;25;20;
74333;PMS5003;62753;40.394;-80.022;2023-11-21T15:14:04;26;24;
74333;PMS5003;62753;40.394;-80.022;2023-11-21T15:16:30;35;31;
74333;PMS5003;62753;40.394;-80.022;2023-11-21T15:18:55;36;28;
74333;PMS5003;62753;40.394;-80.022;2023-11-21T15:21:20;35;26;
74333;PMS5003;62753;40.394;-80.022;2023-11-21T15:23:46;25;24;
74333;PMS5003;62753;40.394;-80.022;2023-11-21T15:26:11;23;21;
74333;PMS5003;62753;40.394;-80.022;2023-11-21T15:28:37;26;24;
74333;PMS5003;62753;40.394;-80.022;2023-11-21T15:31:03;27;20;
74333;PMS5003;62753;40.394;-80.022;2023-11-21T15:33:28;29;22;